sensor_id;sensor_type;location;lat;lon;timestamp;temperature;humidity
7427;DHT22;3755;59.316;18.092;2022-09-09T00:01:20;11.00;99.90
7427;DHT22;3755;59.316;18.092;2022-09-09T00:03:54;11.10;99.90
7427;DHT22;3755;59.316;18.092;2022-09-09T00:06:28;11.10;99.90
7427;DHT22;3755;59.316;18.092;2022-09-09T00:09:02;11.20;99.90
7427;DHT22;3755;59.316;18.092;2022-09-09T00:11:36;11.20;99.90
7427;DHT22;3755;59.316;18.092;2022-09-09T00:14:17;11.30;99.90
7427;DHT22;3755;59.316;18.092;2022-09-09T00:16:50;11.40;99.90
7427;DHT22;3755;59.316;18.092;2022-09-09T00:19:24;11.50;99.90
7427;DHT22;3755;59.316;18.092;2022-09-09T00:22:04;11.60;99.90
7427;DHT22;3755;59.316;18.092;2022-09-09T00:24:40;11.70;99.90
7427;DHT22;3755;59.316;18.092;2022-09-09T00:27:14;11.80;99.90
7427;DHT22;3755;59.316;18.092;2022-09-09T00:29:45;11.80;99.90
7427;DHT22;3755;59.316;18.092;2022-09-09T00:32:17;11.90;99.90
7427;DHT22;3755;59.316;18.092;2022-09-09T00:34:49;11.90;99.90
7427;DHT22;3755;59.316;18.092;2022-09-09T00:37:16;12.00;99.90
7427;DHT22;3755;59.316;18.092;2022-09-09T00:39:46;12.00;99.90
7427;DHT22;3755;59.316;18.092;2022-09-09T00:42:16;12.00;99.90
7427;DHT22;3755;59.316;18.092;2022-09-09T00:44:53;12.10;99.90
7427;DHT22;3755;59.316;18.092;2022-09-09T00:47:46;12.10;99.90
7427;DHT22;3755;59.316;18.092;2022-09-09T00:53:15;12.20;99.90
7427;DHT22;3755;59.316;18.092;2022-09-09T00:55:50;12.20;99.90
7427;DHT22;3755;59.316;18.092;2022-09-09T00:58:20;12.20;99.90
7427;DHT22;3755;59.316;18.092;2022-09-09T01:00:51;12.20;99.90
7427;DHT22;3755;59.316;18.092;2022-09-09T01:03:29;12.20;99.90
7427;DHT22;3755;59.316;18.092;2022-09-09T01:06:02;12.00;99.90
7427;DHT22;3755;59.316;18.092;2022-09-09T01:08:43;12.20;99.90
7427;DHT22;3755;59.316;18.092;2022-09-09T01:11:21;12.20;99.90
7427;DHT22;3755;59.316;18.092;2022-09-09T01:13:55;12.20;99.90
7427;DHT22;3755;59.316;18.092;2022-09-09T01:16:25;12.40;99.90
7427;DHT22;3755;59.316;18.092;2022-09-09T01:18:55;12.20;99.90
7427;DHT22;3755;59.316;18.092;2022-09-09T01:21:32;12.30;99.90
7427;DHT22;3755;59.316;18.092;2022-09-09T01:24:20;12.30;99.90
7427;DHT22;3755;59.316;18.092;2022-09-09T01:26:52;12.30;99.90
7427;DHT22;3755;59.316;18.092;2022-09-09T01:29:21;12.40;99.90
7427;DHT22;3755;59.316;18.092;2022-09-09T01:31:54;12.40;99.90
7427;DHT22;3755;59.316;18.092;2022-09-09T01:34:22;12.30;99.90
7427;DHT22;3755;59.316;18.092;2022-09-09T01:36:56;12.30;99.90
7427;DHT22;3755;59.316;18.092;2022-09-09T01:39:24;12.30;99.90
7427;DHT22;3755;59.316;18.092;2022-09-09T01:41:55;12.30;99.90
7427;DHT22;3755;59.316;18.092;2022-09-09T01:44:23;12.20;99.90
7427;DHT22;3755;59.316;18.092;2022-09-09T01:46:51;12.10;99.90
7427;DHT22;3755;59.316;18.092;2022-09-09T01:49:19;12.20;99.90
7427;DHT22;3755;59.316;18.092;2022-09-09T01:51:48;12.30;99.90
7427;DHT22;3755;59.316;18.092;2022-09-09T01:54:17;12.30;99.90
7427;DHT22;3755;59.316;18.092;2022-09-09T01:56:57;12.30;99.90
7427;DHT22;3755;59.316;18.092;2022-09-09T01:59:52;12.30;99.90
7427;DHT22;3755;59.316;18.092;2022-09-09T02:02:27;12.30;99.90
7427;DHT22;3755;59.316;18.092;2022-09-09T02:05:03;12.30;99.90
7427;DHT22;3755;59.316;18.092;2022-09-09T02:07:39;12.30;99.90
7427;DHT22;3755;59.316;18.092;2022-09-09T02:10:10;12.30;99.90
7427;DHT22;3755;59.316;18.092;2022-09-09T02:12:42;12.30;99.90
7427;DHT22;3755;59.316;18.092;2022-09-09T02:15:17;12.30;99.90
7427;DHT22;3755;59.316;18.092;2022-09-09T02:17:46;12.30;99.90
7427;DHT22;3755;59.316;18.092;2022-09-09T02:20:15;12.30;99.90
7427;DHT22;3755;59.316;18.092;2022-09-09T02:22:44;12.30;99.90
7427;DHT22;3755;59.316;18.092;2022-09-09T02:25:15;12.30;99.90
7427;DHT22;3755;59.316;18.092;2022-09-09T02:27:47;12.30;99.90
7427;DHT22;3755;59.316;18.092;2022-09-09T02:30:16;12.30;99.90
7427;DHT22;3755;59.316;18.092;2022-09-09T02:32:45;12.30;99.90
7427;DHT22;3755;59.316;18.092;2022-09-09T02:35:17;12.40;99.90
7427;DHT22;3755;59.316;18.092;2022-09-09T02:37:46;12.40;99.90
7427;DHT22;3755;59.316;18.092;2022-09-09T02:40:14;12.40;99.90
7427;DHT22;3755;59.316;18.092;2022-09-09T02:42:45;12.40;99.90
7427;DHT22;3755;59.316;18.092;2022-09-09T02:45:16;12.50;99.90
7427;DHT22;3755;59.316;18.092;2022-09-09T02:47:49;12.50;99.90
7427;DHT22;3755;59.316;18.092;2022-09-09T02:50:19;12.50;99.90
7427;DHT22;3755;59.316;18.092;2022-09-09T02:52:59;12.50;99.90
7427;DHT22;3755;59.316;18.092;2022-09-09T02:55:38;12.60;99.90
7427;DHT22;3755;59.316;18.092;2022-09-09T02:58:08;12.60;99.90
7427;DHT22;3755;59.316;18.092;2022-09-09T03:00:38;12.60;99.90
7427;DHT22;3755;59.316;18.092;2022-09-09T03:03:06;12.60;99.90
7427;DHT22;3755;59.316;18.092;2022-09-09T03:05:34;12.60;99.90
7427;DHT22;3755;59.316;18.092;2022-09-09T03:08:02;12.60;99.90
7427;DHT22;3755;59.316;18.092;2022-09-09T03:10:29;12.60;99.90
7427;DHT22;3755;59.316;18.092;2022-09-09T03:12:58;12.60;99.90
7427;DHT22;3755;59.316;18.092;2022-09-09T03:15:27;12.70;99.90
7427;DHT22;3755;59.316;18.092;2022-09-09T03:17:57;12.70;99.90
7427;DHT22;3755;59.316;18.092;2022-09-09T03:20:24;12.70;99.90
7427;DHT22;3755;59.316;18.092;2022-09-09T03:22:52;12.70;99.90
7427;DHT22;3755;59.316;18.092;2022-09-09T03:25:20;12.70;99.90
7427;DHT22;3755;59.316;18.092;2022-09-09T03:27:49;12.60;99.90
7427;DHT22;3755;59.316;18.092;2022-09-09T03:30:18;12.60;99.90
7427;DHT22;3755;59.316;18.092;2022-09-09T03:32:47;12.60;99.90
7427;DHT22;3755;59.316;18.092;2022-09-09T03:35:14;12.60;99.90
7427;DHT22;3755;59.316;18.092;2022-09-09T03:37:42;12.70;99.90
7427;DHT22;3755;59.316;18.092;2022-09-09T03:40:11;12.70;99.90
7427;DHT22;3755;59.316;18.092;2022-09-09T03:42:39;12.70;99.90
7427;DHT22;3755;59.316;18.092;2022-09-09T03:45:08;12.70;99.90
7427;DHT22;3755;59.316;18.092;2022-09-09T03:47:51;12.70;99.90
7427;DHT22;3755;59.316;18.092;2022-09-09T03:50:18;12.70;99.90
7427;DHT22;3755;59.316;18.092;2022-09-09T03:52:47;12.70;99.90
7427;DHT22;3755;59.316;18.092;2022-09-09T03:55:15;12.70;99.90
7427;DHT22;3755;59.316;18.092;2022-09-09T03:57:43;12.70;99.90
7427;DHT22;3755;59.316;18.092;2022-09-09T04:00:12;12.80;99.90
7427;DHT22;3755;59.316;18.092;2022-09-09T04:02:40;12.80;99.90
7427;DHT22;3755;59.316;18.092;2022-09-09T04:05:11;12.80;99.90
7427;DHT22;3755;59.316;18.092;2022-09-09T04:07:39;12.80;99.90
7427;DHT22;3755;59.316;18.092;2022-09-09T04:10:07;12.90;99.90
7427;DHT22;3755;59.316;18.092;2022-09-09T04:12:36;12.90;99.90
7427;DHT22;3755;59.316;18.092;2022-09-09T04:15:05;13.00;99.90
7427;DHT22;3755;59.316;18.092;2022-09-09T04:17:34;13.00;99.90
7427;DHT22;3755;59.316;18.092;2022-09-09T04:20:04;13.00;99.90
7427;DHT22;3755;59.316;18.092;2022-09-09T04:22:36;13.00;99.90
7427;DHT22;3755;59.316;18.092;2022-09-09T04:25:05;13.10;99.90
7427;DHT22;3755;59.316;18.092;2022-09-09T04:27:41;13.10;99.90
7427;DHT22;3755;59.316;18.092;2022-09-09T04:30:10;13.10;99.90
7427;DHT22;3755;59.316;18.092;2022-09-09T04:32:38;13.10;99.90
7427;DHT22;3755;59.316;18.092;2022-09-09T04:35:05;13.20;99.90
7427;DHT22;3755;59.316;18.092;2022-09-09T04:37:36;13.10;99.90
7427;DHT22;3755;59.316;18.092;2022-09-09T04:40:05;13.10;99.90
7427;DHT22;3755;59.316;18.092;2022-09-09T04:42:35;13.10;99.90
7427;DHT22;3755;59.316;18.092;2022-09-09T04:45:07;13.20;99.90
7427;DHT22;3755;59.316;18.092;2022-09-09T04:47:37;13.20;99.90
7427;DHT22;3755;59.316;18.092;2022-09-09T04:50:06;13.20;99.90
7427;DHT22;3755;59.316;18.092;2022-09-09T04:52:38;13.30;99.90
7427;DHT22;3755;59.316;18.092;2022-09-09T04:55:10;13.30;99.90
7427;DHT22;3755;59.316;18.092;2022-09-09T04:57:41;13.40;99.90
7427;DHT22;3755;59.316;18.092;2022-09-09T05:00:10;13.40;99.90
7427;DHT22;3755;59.316;18.092;2022-09-09T05:02:40;13.40;99.90
7427;DHT22;3755;59.316;18.092;2022-09-09T05:05:08;13.40;99.90
7427;DHT22;3755;59.316;18.092;2022-09-09T05:07:39;13.50;99.90
7427;DHT22;3755;59.316;18.092;2022-09-09T05:10:09;13.40;99.90
7427;DHT22;3755;59.316;18.092;2022-09-09T05:12:37;13.40;99.90
7427;DHT22;3755;59.316;18.092;2022-09-09T05:15:06;13.50;99.90
7427;DHT22;3755;59.316;18.092;2022-09-09T05:17:49;13.60;99.90
7427;DHT22;3755;59.316;18.092;2022-09-09T05:20:18;13.60;99.90
7427;DHT22;3755;59.316;18.092;2022-09-09T05:22:53;13.70;99.90
7427;DHT22;3755;59.316;18.092;2022-09-09T05:25:35;13.70;99.90
7427;DHT22;3755;59.316;18.092;2022-09-09T05:28:07;13.80;99.90
7427;DHT22;3755;59.316;18.092;2022-09-09T05:30:39;14.10;99.90
7427;DHT22;3755;59.316;18.092;2022-09-09T05:33:08;14.20;99.40
7427;DHT22;3755;59.316;18.092;2022-09-09T05:35:41;14.20;99.10
7427;DHT22;3755;59.316;18.092;2022-09-09T05:38:12;14.20;98.90
7427;DHT22;3755;59.316;18.092;2022-09-09T05:40:48;14.10;98.70
7427;DHT22;3755;59.316;18.092;2022-09-09T05:43:20;14.20;98.90
7427;DHT22;3755;59.316;18.092;2022-09-09T05:46:01;14.20;98.70
7427;DHT22;3755;59.316;18.092;2022-09-09T05:48:44;14.20;98.50
7427;DHT22;3755;59.316;18.092;2022-09-09T05:51:19;14.10;98.50
7427;DHT22;3755;59.316;18.092;2022-09-09T05:54:05;14.20;98.50
7427;DHT22;3755;59.316;18.092;2022-09-09T05:56:49;14.20;98.10
7427;DHT22;3755;59.316;18.092;2022-09-09T05:59:18;14.20;98.00
7427;DHT22;3755;59.316;18.092;2022-09-09T06:01:54;14.10;97.90
7427;DHT22;3755;59.316;18.092;2022-09-09T06:04:39;14.10;98.00
7427;DHT22;3755;59.316;18.092;2022-09-09T06:07:12;14.10;97.70
7427;DHT22;3755;59.316;18.092;2022-09-09T06:09:55;14.10;97.30
7427;DHT22;3755;59.316;18.092;2022-09-09T06:12:26;14.20;97.40
7427;DHT22;3755;59.316;18.092;2022-09-09T06:15:09;14.30;97.20
7427;DHT22;3755;59.316;18.092;2022-09-09T06:17:54;14.30;97.10
7427;DHT22;3755;59.316;18.092;2022-09-09T06:20:24;14.30;97.20
7427;DHT22;3755;59.316;18.092;2022-09-09T06:23:29;14.30;97.20
7427;DHT22;3755;59.316;18.092;2022-09-09T06:26:04;14.40;97.00
7427;DHT22;3755;59.316;18.092;2022-09-09T06:28:41;14.40;96.90
7427;DHT22;3755;59.316;18.092;2022-09-09T06:31:39;14.40;97.10
7427;DHT22;3755;59.316;18.092;2022-09-09T06:34:20;14.40;97.00
7427;DHT22;3755;59.316;18.092;2022-09-09T06:37:08;14.30;97.30
7427;DHT22;3755;59.316;18.092;2022-09-09T06:40:05;14.20;97.30
7427;DHT22;3755;59.316;18.092;2022-09-09T06:42:52;14.20;97.40
7427;DHT22;3755;59.316;18.092;2022-09-09T06:45:34;14.30;97.50
7427;DHT22;3755;59.316;18.092;2022-09-09T06:48:04;14.40;96.90
7427;DHT22;3755;59.316;18.092;2022-09-09T06:50:38;14.50;97.00
7427;DHT22;3755;59.316;18.092;2022-09-09T06:56:32;14.50;96.70
7427;DHT22;3755;59.316;18.092;2022-09-09T06:59:04;14.60;96.50
7427;DHT22;3755;59.316;18.092;2022-09-09T07:02:07;14.70;96.60
7427;DHT22;3755;59.316;18.092;2022-09-09T07:05:40;14.70;95.80
7427;DHT22;3755;59.316;18.092;2022-09-09T07:15:07;14.70;94.80
7427;DHT22;3755;59.316;18.092;2022-09-09T07:17:51;14.70;94.70
7427;DHT22;3755;59.316;18.092;2022-09-09T07:21:02;14.50;94.50
7427;DHT22;3755;59.316;18.092;2022-09-09T07:23:33;14.40;94.80
7427;DHT22;3755;59.316;18.092;2022-09-09T08:09:32;14.90;95.20
7427;DHT22;3755;59.316;18.092;2022-09-09T08:12:06;14.90;95.00
7427;DHT22;3755;59.316;18.092;2022-09-09T08:14:36;14.90;95.40
7427;DHT22;3755;59.316;18.092;2022-09-09T08:17:14;15.10;95.30
7427;DHT22;3755;59.316;18.092;2022-09-09T08:19:43;15.20;95.50
7427;DHT22;3755;59.316;18.092;2022-09-09T08:46:06;15.10;95.10
7427;DHT22;3755;59.316;18.092;2022-09-09T10:06:12;15.60;95.30
7427;DHT22;3755;59.316;18.092;2022-09-09T10:12:25;15.00;95.60
7427;DHT22;3755;59.316;18.092;2022-09-09T12:03:50;15.10;97.20
7427;DHT22;3755;59.316;18.092;2022-09-09T12:06:45;15.30;97.40
7427;DHT22;3755;59.316;18.092;2022-09-09T12:09:54;15.40;97.50
7427;DHT22;3755;59.316;18.092;2022-09-09T12:36:13;15.50;97.00
7427;DHT22;3755;59.316;18.092;2022-09-09T12:39:27;15.50;97.30
7427;DHT22;3755;59.316;18.092;2022-09-09T12:42:30;15.60;97.30
7427;DHT22;3755;59.316;18.092;2022-09-09T12:45:44;15.60;97.20
7427;DHT22;3755;59.316;18.092;2022-09-09T12:48:30;15.70;97.10
7427;DHT22;3755;59.316;18.092;2022-09-09T12:57:43;15.50;97.20
7427;DHT22;3755;59.316;18.092;2022-09-09T13:03:32;15.40;97.40
7427;DHT22;3755;59.316;18.092;2022-09-09T13:06:55;15.60;97.30
7427;DHT22;3755;59.316;18.092;2022-09-09T13:10:03;15.90;97.20
7427;DHT22;3755;59.316;18.092;2022-09-09T14:00:54;15.40;97.20
7427;DHT22;3755;59.316;18.092;2022-09-09T14:21:44;15.30;97.00
7427;DHT22;3755;59.316;18.092;2022-09-09T14:24:29;15.30;97.10
7427;DHT22;3755;59.316;18.092;2022-09-09T14:27:18;15.40;97.10
7427;DHT22;3755;59.316;18.092;2022-09-09T14:30:04;15.30;96.50
7427;DHT22;3755;59.316;18.092;2022-09-09T14:32:54;15.20;96.50
7427;DHT22;3755;59.316;18.092;2022-09-09T14:35:36;15.10;97.10
7427;DHT22;3755;59.316;18.092;2022-09-09T14:38:32;15.00;97.60
7427;DHT22;3755;59.316;18.092;2022-09-09T14:41:18;15.00;97.60
7427;DHT22;3755;59.316;18.092;2022-09-09T14:44:17;15.00;97.70
7427;DHT22;3755;59.316;18.092;2022-09-09T14:47:00;15.00;97.60
7427;DHT22;3755;59.316;18.092;2022-09-09T14:49:29;14.90;97.70
7427;DHT22;3755;59.316;18.092;2022-09-09T14:52:11;14.90;97.90
7427;DHT22;3755;59.316;18.092;2022-09-09T14:54:45;14.80;97.50
7427;DHT22;3755;59.316;18.092;2022-09-09T14:57:33;14.80;97.60
7427;DHT22;3755;59.316;18.092;2022-09-09T15:00:05;14.70;97.80
7427;DHT22;3755;59.316;18.092;2022-09-09T15:02:37;14.70;97.80
7427;DHT22;3755;59.316;18.092;2022-09-09T15:05:10;14.80;97.90
7427;DHT22;3755;59.316;18.092;2022-09-09T15:07:41;14.80;98.00
7427;DHT22;3755;59.316;18.092;2022-09-09T15:10:19;14.70;97.90
7427;DHT22;3755;59.316;18.092;2022-09-09T15:13:01;14.50;98.10
7427;DHT22;3755;59.316;18.092;2022-09-09T15:15:29;14.50;97.90
7427;DHT22;3755;59.316;18.092;2022-09-09T15:18:15;14.50;98.00
7427;DHT22;3755;59.316;18.092;2022-09-09T15:20:45;14.40;98.20
7427;DHT22;3755;59.316;18.092;2022-09-09T15:23:12;14.40;98.30
7427;DHT22;3755;59.316;18.092;2022-09-09T15:25:57;14.30;98.30
7427;DHT22;3755;59.316;18.092;2022-09-09T15:28:47;14.30;98.30
7427;DHT22;3755;59.316;18.092;2022-09-09T15:31:20;14.20;98.40
7427;DHT22;3755;59.316;18.092;2022-09-09T15:33:53;14.20;98.60
7427;DHT22;3755;59.316;18.092;2022-09-09T15:36:36;14.10;99.10
7427;DHT22;3755;59.316;18.092;2022-09-09T15:39:22;14.10;99.00
7427;DHT22;3755;59.316;18.092;2022-09-09T16:35:31;14.00;99.90
7427;DHT22;3755;59.316;18.092;2022-09-09T16:38:39;14.00;99.90
7427;DHT22;3755;59.316;18.092;2022-09-09T16:41:20;14.00;99.90
7427;DHT22;3755;59.316;18.092;2022-09-09T16:44:03;14.30;99.90
7427;DHT22;3755;59.316;18.092;2022-09-09T16:50:15;15.10;99.10
7427;DHT22;3755;59.316;18.092;2022-09-09T16:52:56;15.40;98.60
7427;DHT22;3755;59.316;18.092;2022-09-09T16:55:39;15.60;98.10
7427;DHT22;3755;59.316;18.092;2022-09-09T16:58:33;15.80;97.70
7427;DHT22;3755;59.316;18.092;2022-09-09T17:01:15;15.60;97.70
7427;DHT22;3755;59.316;18.092;2022-09-09T17:04:15;15.40;97.80
7427;DHT22;3755;59.316;18.092;2022-09-09T17:10:16;14.30;99.40
7427;DHT22;3755;59.316;18.092;2022-09-09T17:12:57;13.90;99.90
7427;DHT22;3755;59.316;18.092;2022-09-09T17:15:45;13.70;99.90
7427;DHT22;3755;59.316;18.092;2022-09-09T17:18:34;13.50;99.90
7427;DHT22;3755;59.316;18.092;2022-09-09T17:21:17;13.40;99.90
7427;DHT22;3755;59.316;18.092;2022-09-09T17:24:01;13.20;99.90
7427;DHT22;3755;59.316;18.092;2022-09-09T17:26:34;13.10;99.90
7427;DHT22;3755;59.316;18.092;2022-09-09T17:29:16;13.00;99.90
7427;DHT22;3755;59.316;18.092;2022-09-09T17:31:57;13.00;99.90
7427;DHT22;3755;59.316;18.092;2022-09-09T17:34:50;12.90;99.90
7427;DHT22;3755;59.316;18.092;2022-09-09T17:37:54;12.90;99.90
7427;DHT22;3755;59.316;18.092;2022-09-09T17:40:24;12.80;99.90
7427;DHT22;3755;59.316;18.092;2022-09-09T17:43:08;12.80;99.90
7427;DHT22;3755;59.316;18.092;2022-09-09T17:45:44;12.80;99.90
7427;DHT22;3755;59.316;18.092;2022-09-09T17:48:12;12.70;99.90
7427;DHT22;3755;59.316;18.092;2022-09-09T17:50:43;12.70;99.90
7427;DHT22;3755;59.316;18.092;2022-09-09T17:53:16;12.60;99.90
7427;DHT22;3755;59.316;18.092;2022-09-09T17:56:02;12.60;99.90
7427;DHT22;3755;59.316;18.092;2022-09-09T17:58:31;12.50;99.90
7427;DHT22;3755;59.316;18.092;2022-09-09T18:01:18;12.50;99.90
7427;DHT22;3755;59.316;18.092;2022-09-09T18:04:06;12.50;99.90
7427;DHT22;3755;59.316;18.092;2022-09-09T18:06:57;12.50;99.90
7427;DHT22;3755;59.316;18.092;2022-09-09T18:09:34;12.50;99.90
7427;DHT22;3755;59.316;18.092;2022-09-09T18:12:19;12.40;99.90
7427;DHT22;3755;59.316;18.092;2022-09-09T18:14:49;12.40;99.90
7427;DHT22;3755;59.316;18.092;2022-09-09T18:17:28;12.40;99.90
7427;DHT22;3755;59.316;18.092;2022-09-09T18:20:02;12.40;99.90
7427;DHT22;3755;59.316;18.092;2022-09-09T18:22:43;12.30;99.90
7427;DHT22;3755;59.316;18.092;2022-09-09T18:25:11;12.30;99.90
7427;DHT22;3755;59.316;18.092;2022-09-09T18:27:40;12.20;99.90
7427;DHT22;3755;59.316;18.092;2022-09-09T18:30:27;12.20;99.90
7427;DHT22;3755;59.316;18.092;2022-09-09T18:33:10;12.10;99.90
7427;DHT22;3755;59.316;18.092;2022-09-09T18:35:38;11.90;99.90
7427;DHT22;3755;59.316;18.092;2022-09-09T18:38:15;12.00;99.90
7427;DHT22;3755;59.316;18.092;2022-09-09T18:40:44;12.00;99.90
7427;DHT22;3755;59.316;18.092;2022-09-09T18:43:12;12.00;99.90
7427;DHT22;3755;59.316;18.092;2022-09-09T18:45:48;12.00;99.90
7427;DHT22;3755;59.316;18.092;2022-09-09T18:48:25;12.00;99.90
7427;DHT22;3755;59.316;18.092;2022-09-09T18:50:54;12.00;99.90
7427;DHT22;3755;59.316;18.092;2022-09-09T18:53:23;12.00;99.90
7427;DHT22;3755;59.316;18.092;2022-09-09T18:55:57;12.00;99.90
7427;DHT22;3755;59.316;18.092;2022-09-09T18:58:29;11.90;99.90
7427;DHT22;3755;59.316;18.092;2022-09-09T19:01:15;11.90;99.90
7427;DHT22;3755;59.316;18.092;2022-09-09T19:03:45;11.90;99.90
7427;DHT22;3755;59.316;18.092;2022-09-09T19:06:15;11.90;99.90
7427;DHT22;3755;59.316;18.092;2022-09-09T19:08:57;11.80;99.90
7427;DHT22;3755;59.316;18.092;2022-09-09T19:11:30;11.80;99.90
7427;DHT22;3755;59.316;18.092;2022-09-09T19:14:02;11.80;99.90
7427;DHT22;3755;59.316;18.092;2022-09-09T19:19:55;11.70;99.90
7427;DHT22;3755;59.316;18.092;2022-09-09T19:22:43;11.60;99.90
7427;DHT22;3755;59.316;18.092;2022-09-09T19:25:26;11.50;99.90
7427;DHT22;3755;59.316;18.092;2022-09-09T19:27:58;11.50;99.90
7427;DHT22;3755;59.316;18.092;2022-09-09T19:30:26;11.50;99.90
7427;DHT22;3755;59.316;18.092;2022-09-09T19:32:54;11.50;99.90
7427;DHT22;3755;59.316;18.092;2022-09-09T19:35:41;11.50;99.90
7427;DHT22;3755;59.316;18.092;2022-09-09T19:38:44;11.50;99.90
7427;DHT22;3755;59.316;18.092;2022-09-09T19:41:14;11.40;99.90
7427;DHT22;3755;59.316;18.092;2022-09-09T19:43:44;11.40;99.90
7427;DHT22;3755;59.316;18.092;2022-09-09T19:46:12;11.40;99.90
7427;DHT22;3755;59.316;18.092;2022-09-09T19:48:45;11.40;99.90
7427;DHT22;3755;59.316;18.092;2022-09-09T19:51:20;11.40;99.90
7427;DHT22;3755;59.316;18.092;2022-09-09T19:54:07;11.30;99.90
7427;DHT22;3755;59.316;18.092;2022-09-09T19:56:37;11.30;99.90
7427;DHT22;3755;59.316;18.092;2022-09-09T19:59:06;11.20;99.90
7427;DHT22;3755;59.316;18.092;2022-09-09T20:01:37;11.20;99.90
7427;DHT22;3755;59.316;18.092;2022-09-09T20:04:09;11.10;99.90
7427;DHT22;3755;59.316;18.092;2022-09-09T20:06:55;11.10;99.90
7427;DHT22;3755;59.316;18.092;2022-09-09T20:09:26;11.10;99.90
7427;DHT22;3755;59.316;18.092;2022-09-09T20:12:00;11.10;99.90
7427;DHT22;3755;59.316;18.092;2022-09-09T20:14:29;11.10;99.90
7427;DHT22;3755;59.316;18.092;2022-09-09T20:16:57;11.10;99.90
7427;DHT22;3755;59.316;18.092;2022-09-09T20:19:25;11.00;99.90
7427;DHT22;3755;59.316;18.092;2022-09-09T20:21:54;11.00;99.90
7427;DHT22;3755;59.316;18.092;2022-09-09T20:24:28;11.00;99.90
7427;DHT22;3755;59.316;18.092;2022-09-09T20:26:59;10.90;99.90
7427;DHT22;3755;59.316;18.092;2022-09-09T20:29:27;10.80;99.90
7427;DHT22;3755;59.316;18.092;2022-09-09T20:31:54;10.80;99.90
7427;DHT22;3755;59.316;18.092;2022-09-09T20:34:23;10.70;99.90
7427;DHT22;3755;59.316;18.092;2022-09-09T20:36:51;10.70;99.90
7427;DHT22;3755;59.316;18.092;2022-09-09T20:39:21;10.80;99.90
7427;DHT22;3755;59.316;18.092;2022-09-09T20:42:03;10.70;99.90
7427;DHT22;3755;59.316;18.092;2022-09-09T20:44:32;10.70;99.90
7427;DHT22;3755;59.316;18.092;2022-09-09T20:47:02;10.60;99.90
7427;DHT22;3755;59.316;18.092;2022-09-09T20:49:32;10.60;99.90
7427;DHT22;3755;59.316;18.092;2022-09-09T20:52:00;10.60;99.90
7427;DHT22;3755;59.316;18.092;2022-09-09T20:54:30;10.60;99.90
7427;DHT22;3755;59.316;18.092;2022-09-09T20:57:00;10.50;99.90
7427;DHT22;3755;59.316;18.092;2022-09-09T20:59:29;10.60;99.90
7427;DHT22;3755;59.316;18.092;2022-09-09T21:01:58;10.50;99.90
7427;DHT22;3755;59.316;18.092;2022-09-09T21:04:27;10.50;99.90
7427;DHT22;3755;59.316;18.092;2022-09-09T21:06:58;10.50;99.90
7427;DHT22;3755;59.316;18.092;2022-09-09T21:09:33;10.50;99.90
7427;DHT22;3755;59.316;18.092;2022-09-09T21:12:06;10.50;99.90
7427;DHT22;3755;59.316;18.092;2022-09-09T21:14:33;10.50;99.90
7427;DHT22;3755;59.316;18.092;2022-09-09T21:17:02;10.40;99.90
7427;DHT22;3755;59.316;18.092;2022-09-09T21:19:31;10.40;99.90
7427;DHT22;3755;59.316;18.092;2022-09-09T21:22:06;10.40;99.90
7427;DHT22;3755;59.316;18.092;2022-09-09T21:24:49;10.40;99.90
7427;DHT22;3755;59.316;18.092;2022-09-09T21:27:17;10.40;99.90
7427;DHT22;3755;59.316;18.092;2022-09-09T21:29:48;10.40;99.90
7427;DHT22;3755;59.316;18.092;2022-09-09T21:32:21;10.40;99.90
7427;DHT22;3755;59.316;18.092;2022-09-09T21:34:50;10.40;99.90
7427;DHT22;3755;59.316;18.092;2022-09-09T21:37:18;10.40;99.90
7427;DHT22;3755;59.316;18.092;2022-09-09T21:42:50;10.40;99.90
7427;DHT22;3755;59.316;18.092;2022-09-09T21:45:20;10.30;99.90
7427;DHT22;3755;59.316;18.092;2022-09-09T21:48:01;10.30;99.90
7427;DHT22;3755;59.316;18.092;2022-09-09T21:50:35;10.30;99.90
7427;DHT22;3755;59.316;18.092;2022-09-09T21:53:03;10.30;99.90
7427;DHT22;3755;59.316;18.092;2022-09-09T21:55:36;10.30;99.90
7427;DHT22;3755;59.316;18.092;2022-09-09T21:58:19;10.30;99.90
7427;DHT22;3755;59.316;18.092;2022-09-09T22:01:16;10.20;99.90
7427;DHT22;3755;59.316;18.092;2022-09-09T22:03:45;10.20;99.90
7427;DHT22;3755;59.316;18.092;2022-09-09T22:06:27;10.20;99.90
7427;DHT22;3755;59.316;18.092;2022-09-09T22:09:08;10.20;99.90
7427;DHT22;3755;59.316;18.092;2022-09-09T22:11:36;10.30;99.90
7427;DHT22;3755;59.316;18.092;2022-09-09T22:14:04;10.30;99.90
7427;DHT22;3755;59.316;18.092;2022-09-09T22:16:32;10.30;99.90
7427;DHT22;3755;59.316;18.092;2022-09-09T22:19:20;10.40;99.90
7427;DHT22;3755;59.316;18.092;2022-09-09T22:21:48;10.40;99.90
7427;DHT22;3755;59.316;18.092;2022-09-09T22:24:15;10.30;99.90
7427;DHT22;3755;59.316;18.092;2022-09-09T22:26:42;10.30;99.90
7427;DHT22;3755;59.316;18.092;2022-09-09T22:29:13;10.30;99.90
7427;DHT22;3755;59.316;18.092;2022-09-09T22:31:42;10.30;99.90
7427;DHT22;3755;59.316;18.092;2022-09-09T22:34:09;10.30;99.90
7427;DHT22;3755;59.316;18.092;2022-09-09T22:36:37;10.30;99.90
7427;DHT22;3755;59.316;18.092;2022-09-09T22:39:05;10.30;99.90
7427;DHT22;3755;59.316;18.092;2022-09-09T22:41:32;10.30;99.90
7427;DHT22;3755;59.316;18.092;2022-09-09T22:44:01;10.20;99.90
7427;DHT22;3755;59.316;18.092;2022-09-09T22:46:30;10.10;99.90
7427;DHT22;3755;59.316;18.092;2022-09-09T22:49:00;10.10;99.90
7427;DHT22;3755;59.316;18.092;2022-09-09T22:51:28;10.10;99.90
7427;DHT22;3755;59.316;18.092;2022-09-09T22:53:55;10.10;99.90
7427;DHT22;3755;59.316;18.092;2022-09-09T22:56:24;10.10;99.90
7427;DHT22;3755;59.316;18.092;2022-09-09T22:58:55;10.10;99.90
7427;DHT22;3755;59.316;18.092;2022-09-09T23:01:24;10.20;99.90
7427;DHT22;3755;59.316;18.092;2022-09-09T23:04:00;10.20;99.90
7427;DHT22;3755;59.316;18.092;2022-09-09T23:06:42;10.20;99.90
7427;DHT22;3755;59.316;18.092;2022-09-09T23:09:11;10.20;99.90
7427;DHT22;3755;59.316;18.092;2022-09-09T23:11:39;10.20;99.90
7427;DHT22;3755;59.316;18.092;2022-09-09T23:14:10;10.20;99.90
7427;DHT22;3755;59.316;18.092;2022-09-09T23:16:39;10.20;99.90
7427;DHT22;3755;59.316;18.092;2022-09-09T23:19:11;10.20;99.90
7427;DHT22;3755;59.316;18.092;2022-09-09T23:21:41;10.20;99.90
7427;DHT22;3755;59.316;18.092;2022-09-09T23:24:10;10.20;99.90
7427;DHT22;3755;59.316;18.092;2022-09-09T23:26:38;10.20;99.90
7427;DHT22;3755;59.316;18.092;2022-09-09T23:29:06;10.20;99.90
7427;DHT22;3755;59.316;18.092;2022-09-09T23:31:34;10.20;99.90
7427;DHT22;3755;59.316;18.092;2022-09-09T23:34:05;10.20;99.90
7427;DHT22;3755;59.316;18.092;2022-09-09T23:36:34;10.20;99.90
7427;DHT22;3755;59.316;18.092;2022-09-09T23:39:04;10.20;99.90
7427;DHT22;3755;59.316;18.092;2022-09-09T23:41:33;10.20;99.90
7427;DHT22;3755;59.316;18.092;2022-09-09T23:44:02;10.20;99.90
7427;DHT22;3755;59.316;18.092;2022-09-09T23:46:30;10.30;99.90
7427;DHT22;3755;59.316;18.092;2022-09-09T23:48:58;10.30;99.90
7427;DHT22;3755;59.316;18.092;2022-09-09T23:51:28;10.30;99.90
7427;DHT22;3755;59.316;18.092;2022-09-09T23:53:58;10.30;99.90